Time,TemperatureF,DewpointF,PressureIn,WindDirection,WindDirectionDegrees,WindSpeedMPH,WindSpeedGustMPH,Humidity,HourlyPrecipIn,Conditions,Clouds,dailyrainin,SoftwareType,DateUTC
2013-04-17 00:00:00,52.9,47.8,30.06,East,90,12.1,14.5,83,0.00,,,-99.99,meteobridge,2013-04-17 04:00:00,
2013-04-17 00:01:00,52.9,47.8,30.06,NE,45,10.7,12.1,83,0.00,,,0.00,meteobridge,2013-04-17 04:01:00,
2013-04-17 00:02:00,52.9,47.8,30.06,North,0,7.6,10.7,83,0.00,,,0.00,meteobridge,2013-04-17 04:02:00,
2013-04-17 00:07:00,53.1,48.0,30.06,NE,45,9.8,12.1,83,0.00,,,0.00,meteobridge,2013-04-17 04:07:00,
2013-04-17 00:12:00,53.1,48.0,30.07,East,90,9.2,9.2,83,0.00,,,0.00,meteobridge,2013-04-17 04:12:00,
2013-04-17 00:17:00,53.1,48.0,30.07,NE,45,8.3,9.8,83,0.00,,,0.00,meteobridge,2013-04-17 04:17:00,
2013-04-17 00:22:00,53.1,48.0,30.07,NE,45,10.7,10.7,83,0.00,,,0.00,meteobridge,2013-04-17 04:22:00,
2013-04-17 00:28:00,53.1,48.0,30.07,East,90,6.0,9.8,83,0.00,,,0.00,meteobridge,2013-04-17 04:28:00,
2013-04-17 00:33:00,52.9,47.5,30.07,SE,135,7.6,7.6,82,0.00,,,0.00,meteobridge,2013-04-17 04:33:00,
2013-04-17 00:38:00,53.1,47.7,30.06,NE,45,9.2,9.2,82,0.00,,,0.00,meteobridge,2013-04-17 04:38:00,
2013-04-17 00:43:00,53.2,47.8,30.05,South,180,5.4,7.6,82,0.00,,,0.00,meteobridge,2013-04-17 04:43:00,
2013-04-17 00:48:00,53.6,47.8,30.06,NE,45,10.7,10.7,81,0.00,,,0.00,meteobridge,2013-04-17 04:48:00,
2013-04-17 00:53:00,53.6,47.8,30.05,NE,45,11.4,11.4,81,0.00,,,0.00,meteobridge,2013-04-17 04:53:00,
2013-04-17 00:59:00,53.8,48.0,30.05,NE,45,14.5,14.5,81,0.00,,,0.00,meteobridge,2013-04-17 04:59:00,
2013-04-17 01:04:00,54.0,48.2,30.05,South,180,12.1,12.1,81,0.00,,,0.00,meteobridge,2013-04-17 05:04:00,
2013-04-17 01:09:00,54.0,48.2,30.05,South,180,3.8,9.2,81,0.00,,,0.00,meteobridge,2013-04-17 05:09:00,
2013-04-17 01:14:00,54.0,48.2,30.04,SE,135,3.8,6.9,81,0.00,,,0.00,meteobridge,2013-04-17 05:14:00,
2013-04-17 01:19:00,53.8,48.0,30.05,East,90,8.3,8.3,81,0.00,,,0.00,meteobridge,2013-04-17 05:19:00,
2013-04-17 01:24:00,53.8,48.0,30.05,WSW,248,6.0,9.8,81,0.00,,,0.00,meteobridge,2013-04-17 05:24:00,
2013-04-17 01:30:00,54.0,48.2,30.05,West,270,5.4,6.9,81,0.00,,,0.00,meteobridge,2013-04-17 05:30:00,
2013-04-17 01:35:00,54.0,48.2,30.05,NE,45,5.4,7.6,81,0.00,,,0.00,meteobridge,2013-04-17 05:35:00,
2013-04-17 01:40:00,53.8,48.0,30.05,NE,45,6.9,6.9,81,0.00,,,0.00,meteobridge,2013-04-17 05:40:00,
2013-04-17 01:45:00,53.8,48.0,30.04,East,90,6.0,6.9,81,0.00,,,0.00,meteobridge,2013-04-17 05:45:00,
2013-04-17 01:50:00,53.8,48.4,30.04,SE,135,8.3,9.2,82,0.00,,,0.00,meteobridge,2013-04-17 05:50:00,
2013-04-17 01:55:00,53.8,48.4,30.04,SE,135,6.0,7.6,82,0.00,,,0.00,meteobridge,2013-04-17 05:55:00,
2013-04-17 02:01:00,54.0,48.6,30.04,East,90,7.6,7.6,82,0.00,,,0.00,meteobridge,2013-04-17 06:01:00,
2013-04-17 02:06:00,54.0,48.6,30.03,East,90,7.6,7.6,82,0.00,,,0.00,meteobridge,2013-04-17 06:06:00,
2013-04-17 02:11:00,54.0,48.6,30.03,ENE,68,4.5,4.5,82,0.00,,,0.00,meteobridge,2013-04-17 06:11:00,
2013-04-17 02:16:00,53.8,48.4,30.03,NE,45,6.0,7.6,82,0.00,,,0.00,meteobridge,2013-04-17 06:16:00,
2013-04-17 02:21:00,53.8,48.7,30.03,NE,45,8.3,9.8,83,0.00,,,0.00,meteobridge,2013-04-17 06:21:00,
2013-04-17 02:26:00,53.8,48.7,30.03,SE,135,4.5,10.7,83,0.00,,,0.00,meteobridge,2013-04-17 06:26:00,
2013-04-17 02:31:00,54.0,48.9,30.03,NW,315,6.9,6.9,83,0.00,,,0.00,meteobridge,2013-04-17 06:31:00,
2013-04-17 02:36:00,54.0,48.9,30.03,NE,45,4.5,10.7,83,0.00,,,0.00,meteobridge,2013-04-17 06:36:00,
2013-04-17 02:41:00,53.8,49.1,30.03,North,0,3.8,4.5,84,0.00,,,0.00,meteobridge,2013-04-17 06:41:00,
2013-04-17 02:47:00,53.8,49.5,30.03,East,90,3.1,5.4,85,0.00,,,0.00,meteobridge,2013-04-17 06:47:00,
2013-04-17 02:52:00,53.6,49.3,30.03,SE,135,4.5,6.0,85,0.00,,,0.00,meteobridge,2013-04-17 06:52:00,
2013-04-17 02:57:00,53.8,49.5,30.03,North,0,4.5,11.4,85,0.00,,,0.00,meteobridge,2013-04-17 06:57:00,
2013-04-17 03:02:00,53.8,49.6,30.03,North,0,5.4,8.3,86,0.00,,,0.00,meteobridge,2013-04-17 07:02:00,
2013-04-17 03:07:00,53.8,49.6,30.03,North,0,6.9,8.3,86,0.00,,,0.00,meteobridge,2013-04-17 07:07:00,
2013-04-17 03:12:00,54.0,50.2,30.03,SW,225,5.4,8.3,87,0.00,,,0.00,meteobridge,2013-04-17 07:12:00,
2013-04-17 03:17:00,54.1,50.4,30.03,South,180,6.0,6.9,87,0.00,,,0.00,meteobridge,2013-04-17 07:17:00,
2013-04-17 03:23:00,54.0,50.2,30.03,ENE,68,3.1,5.4,87,0.00,,,0.00,meteobridge,2013-04-17 07:23:00,
2013-04-17 03:28:00,53.8,49.6,30.03,NE,45,6.0,6.9,86,0.00,,,0.00,meteobridge,2013-04-17 07:28:00,
2013-04-17 03:33:00,53.6,49.5,30.03,South,180,5.4,5.4,86,0.00,,,0.00,meteobridge,2013-04-17 07:33:00,
2013-04-17 03:38:00,53.6,49.8,30.03,East,90,3.8,7.6,87,0.00,,,0.00,meteobridge,2013-04-17 07:38:00,
2013-04-17 03:43:00,53.6,49.8,30.03,North,0,9.8,9.8,87,0.00,,,0.00,meteobridge,2013-04-17 07:43:00,
2013-04-17 03:48:00,53.4,50.0,30.03,NE,45,6.9,6.9,88,0.00,,,0.00,meteobridge,2013-04-17 07:48:00,
2013-04-17 03:54:00,53.2,50.0,30.03,WSW,248,6.9,8.3,89,0.00,,,0.00,meteobridge,2013-04-17 07:54:00,
2013-04-17 03:59:00,53.1,49.8,30.03,SE,135,4.5,6.9,89,0.00,,,0.00,meteobridge,2013-04-17 07:59:00,
2013-04-17 04:04:00,53.1,49.8,30.04,North,0,5.4,5.4,89,0.00,,,0.00,meteobridge,2013-04-17 08:04:00,
2013-04-17 04:09:00,52.9,49.6,30.04,SE,135,4.5,4.5,89,0.00,,,0.00,meteobridge,2013-04-17 08:09:00,
2013-04-17 04:14:00,52.7,49.5,30.04,ENE,68,5.4,6.0,89,0.00,,,0.00,meteobridge,2013-04-17 08:14:00,
2013-04-17 04:19:00,52.3,49.3,30.04,SSE,158,3.8,4.5,89,0.00,,,0.00,meteobridge,2013-04-17 08:19:00,
2013-04-17 04:25:00,52.2,49.1,30.04,East,90,6.0,6.0,89,0.00,,,0.00,meteobridge,2013-04-17 08:25:00,
2013-04-17 04:30:00,52.0,48.9,30.04,NE,45,3.8,6.0,89,0.00,,,0.00,meteobridge,2013-04-17 08:30:00,
2013-04-17 04:35:00,51.8,48.7,30.04,NE,45,4.5,4.5,89,0.00,,,0.00,meteobridge,2013-04-17 08:35:00,
2013-04-17 04:40:00,51.6,48.7,30.04,West,270,3.1,3.1,90,0.00,,,0.00,meteobridge,2013-04-17 08:40:00,
2013-04-17 04:45:00,51.6,49.1,30.04,South,180,2.2,4.5,91,0.00,,,0.00,meteobridge,2013-04-17 08:45:00,
2013-04-17 04:50:00,51.6,49.1,30.04,East,90,3.8,4.5,91,0.00,,,0.00,meteobridge,2013-04-17 08:50:00,
2013-04-17 04:56:00,51.4,48.9,30.03,NE,45,5.4,6.0,91,0.00,,,0.00,meteobridge,2013-04-17 08:56:00,
2013-04-17 05:01:00,51.4,48.9,30.04,East,90,2.2,5.4,91,0.00,,,0.00,meteobridge,2013-04-17 09:01:00,
2013-04-17 05:06:00,51.4,48.9,30.04,North,0,3.1,4.5,91,0.00,,,0.00,meteobridge,2013-04-17 09:06:00,
2013-04-17 05:11:00,51.3,49.1,30.04,East,90,2.2,2.2,92,0.00,,,0.00,meteobridge,2013-04-17 09:11:00,
2013-04-17 05:16:00,51.1,48.9,30.04,South,180,2.2,4.5,92,0.00,,,0.00,meteobridge,2013-04-17 09:16:00,
2013-04-17 05:21:00,51.1,48.9,30.05,East,90,3.1,4.5,92,0.00,,,0.00,meteobridge,2013-04-17 09:21:00,
2013-04-17 05:27:00,50.9,48.7,30.04,East,90,2.2,3.1,92,0.01,,,0.01,meteobridge,2013-04-17 09:27:00,
2013-04-17 05:32:00,50.9,48.7,30.04,NE,45,3.1,3.1,92,0.01,,,0.01,meteobridge,2013-04-17 09:32:00,
2013-04-17 05:37:00,50.9,48.9,30.04,SW,225,3.1,3.1,93,0.01,,,0.01,meteobridge,2013-04-17 09:37:00,
2013-04-17 05:42:00,50.7,48.7,30.04,North,0,3.8,3.8,93,0.01,,,0.01,meteobridge,2013-04-17 09:42:00,
2013-04-17 05:47:00,50.7,48.7,30.03,SE,135,2.2,5.4,93,0.01,,,0.01,meteobridge,2013-04-17 09:47:00,
2013-04-17 05:52:00,50.7,48.7,30.04,East,90,2.2,3.1,93,0.01,,,0.01,meteobridge,2013-04-17 09:52:00,
2013-04-17 05:58:00,50.7,48.7,30.04,North,0,3.1,6.0,93,0.01,,,0.01,meteobridge,2013-04-17 09:58:00,
2013-04-17 06:03:00,50.7,48.7,30.04,NW,315,1.6,3.8,93,0.01,,,0.01,meteobridge,2013-04-17 10:03:00,
2013-04-17 06:08:00,50.5,48.6,30.04,East,90,3.1,3.8,93,0.01,,,0.01,meteobridge,2013-04-17 10:08:00,
2013-04-17 06:13:00,50.5,48.9,30.04,NE,45,5.4,6.0,94,0.01,,,0.01,meteobridge,2013-04-17 10:13:00,
2013-04-17 06:18:00,50.5,48.9,30.04,NE,45,2.2,2.2,94,0.01,,,0.01,meteobridge,2013-04-17 10:18:00,
2013-04-17 06:23:00,50.5,48.9,30.05,East,90,2.2,2.2,94,0.00,,,0.01,meteobridge,2013-04-17 10:23:00,
2013-04-17 06:29:00,50.4,48.7,30.05,NE,45,3.1,3.1,94,0.00,,,0.01,meteobridge,2013-04-17 10:29:00,
2013-04-17 06:34:00,50.4,48.7,30.04,NE,45,3.8,3.8,94,0.00,,,0.01,meteobridge,2013-04-17 10:34:00,
2013-04-17 06:39:00,50.4,48.7,30.05,South,180,2.2,3.1,94,0.00,,,0.01,meteobridge,2013-04-17 10:39:00,
2013-04-17 06:44:00,50.5,48.9,30.05,East,90,2.2,2.2,94,0.00,,,0.01,meteobridge,2013-04-17 10:44:00,
2013-04-17 06:49:00,50.7,49.1,30.05,NE,45,2.2,3.1,94,0.00,,,0.01,meteobridge,2013-04-17 10:49:00,
2013-04-17 06:54:00,50.7,49.1,30.05,East,90,1.6,3.1,94,0.00,,,0.01,meteobridge,2013-04-17 10:54:00,
2013-04-17 07:00:00,50.7,49.1,30.06,North,0,2.2,2.2,94,0.00,,,0.01,meteobridge,2013-04-17 11:00:00,
2013-04-17 07:05:00,50.9,49.3,30.06,NE,45,3.1,3.1,94,0.00,,,0.01,meteobridge,2013-04-17 11:05:00,
2013-04-17 07:10:00,50.9,49.3,30.06,NE,45,1.6,3.1,94,0.00,,,0.01,meteobridge,2013-04-17 11:10:00,
2013-04-17 07:15:00,50.9,49.3,30.06,SE,135,2.2,2.2,94,0.00,,,0.01,meteobridge,2013-04-17 11:15:00,
2013-04-17 07:20:00,50.9,49.3,30.07,SE,135,2.2,2.2,94,0.00,,,0.01,meteobridge,2013-04-17 11:20:00,
2013-04-17 07:25:00,50.9,49.3,30.07,NE,45,2.2,2.2,94,0.00,,,0.01,meteobridge,2013-04-17 11:25:00,
2013-04-17 07:30:00,50.9,49.3,30.07,South,180,1.6,1.6,94,0.00,,,0.01,meteobridge,2013-04-17 11:30:00,
2013-04-17 07:36:00,50.9,49.3,30.07,SE,135,0.7,2.2,94,0.00,,,0.01,meteobridge,2013-04-17 11:36:00,
2013-04-17 07:41:00,50.9,49.5,30.08,SE,135,2.2,3.1,95,0.00,,,0.01,meteobridge,2013-04-17 11:41:00,
2013-04-17 07:46:00,51.1,49.6,30.07,SE,135,1.6,1.6,95,0.01,,,0.02,meteobridge,2013-04-17 11:46:00,
2013-04-17 07:51:00,51.3,49.8,30.08,SE,135,1.6,2.2,95,0.01,,,0.02,meteobridge,2013-04-17 11:51:00,
2013-04-17 07:56:00,51.4,50.0,30.08,South,180,3.1,3.8,95,0.01,,,0.02,meteobridge,2013-04-17 11:56:00,
2013-04-17 08:01:00,51.4,50.0,30.09,South,180,3.1,3.1,95,0.01,,,0.02,meteobridge,2013-04-17 12:01:00,
2013-04-17 08:06:00,51.6,50.2,30.09,South,180,2.2,3.1,95,0.01,,,0.02,meteobridge,2013-04-17 12:06:00,
2013-04-17 08:12:00,51.4,50.0,30.09,SE,135,1.6,3.1,95,0.01,,,0.02,meteobridge,2013-04-17 12:12:00,
2013-04-17 08:17:00,51.4,50.0,30.09,SE,135,0.7,1.6,95,0.01,,,0.02,meteobridge,2013-04-17 12:17:00,
2013-04-17 08:22:00,51.6,50.2,30.09,West,270,2.2,2.2,95,0.01,,,0.02,meteobridge,2013-04-17 12:22:00,
2013-04-17 08:27:00,51.4,50.0,30.09,SE,135,1.6,1.6,95,0.01,,,0.02,meteobridge,2013-04-17 12:27:00,
2013-04-17 08:32:00,51.3,49.8,30.09,SW,225,0.7,1.6,95,0.01,,,0.02,meteobridge,2013-04-17 12:32:00,
2013-04-17 08:37:00,51.3,49.8,30.09,SW,225,1.6,2.2,95,0.01,,,0.02,meteobridge,2013-04-17 12:37:00,
2013-04-17 08:43:00,51.3,49.8,30.09,South,180,0.7,1.6,95,0.00,,,0.02,meteobridge,2013-04-17 12:43:00,
2013-04-17 08:48:00,51.6,50.2,30.10,SW,225,0.7,1.6,95,0.00,,,0.02,meteobridge,2013-04-17 12:48:00,
2013-04-17 08:53:00,52.0,50.4,30.10,SE,135,1.6,3.1,94,0.00,,,0.02,meteobridge,2013-04-17 12:53:00,
2013-04-17 08:58:00,52.3,50.7,30.10,SE,135,3.1,3.1,94,0.00,,,0.02,meteobridge,2013-04-17 12:58:00,
2013-04-17 09:03:00,52.5,50.5,30.10,South,180,1.6,5.4,93,0.00,,,0.02,meteobridge,2013-04-17 13:03:00,
2013-04-17 09:08:00,53.1,50.2,30.11,SE,135,3.8,3.8,90,0.00,,,0.02,meteobridge,2013-04-17 13:08:00,
2013-04-17 09:14:00,53.4,48.0,30.11,South,180,2.2,3.8,82,0.00,,,0.02,meteobridge,2013-04-17 13:14:00,
2013-04-17 09:19:00,54.7,46.9,30.11,South,180,5.4,5.4,75,0.00,,,0.02,meteobridge,2013-04-17 13:19:00,
2013-04-17 09:24:00,55.2,45.1,30.11,South,180,4.5,4.5,69,0.00,,,0.02,meteobridge,2013-04-17 13:24:00,
2013-04-17 09:29:00,56.7,45.0,30.11,West,270,5.4,6.9,65,0.00,,,0.02,meteobridge,2013-04-17 13:29:00,
2013-04-17 09:34:00,57.4,43.7,30.11,SW,225,3.1,4.5,60,0.00,,,0.02,meteobridge,2013-04-17 13:34:00,
2013-04-17 09:39:00,57.7,42.6,30.11,SW,225,3.1,8.3,57,0.00,,,0.02,meteobridge,2013-04-17 13:39:00,
2013-04-17 09:44:00,58.6,43.9,30.11,SW,225,4.5,9.2,58,0.00,,,0.02,meteobridge,2013-04-17 13:44:00,
2013-04-17 09:50:00,59.0,42.8,30.11,South,180,4.5,4.5,55,0.00,,,0.02,meteobridge,2013-04-17 13:50:00,
2013-04-17 09:55:00,58.3,42.3,30.11,SW,225,5.4,5.4,55,0.00,,,0.02,meteobridge,2013-04-17 13:55:00,
2013-04-17 10:00:00,58.5,41.9,30.11,SE,135,6.9,6.9,54,0.00,,,0.02,meteobridge,2013-04-17 14:00:00,
2013-04-17 10:05:00,59.4,40.6,30.12,South,180,7.6,8.3,50,0.00,,,0.02,meteobridge,2013-04-17 14:05:00,
2013-04-17 10:10:00,57.6,39.6,30.12,SE,135,3.8,4.5,51,0.00,,,0.02,meteobridge,2013-04-17 14:10:00,
2013-04-17 10:15:00,57.6,39.6,30.12,West,270,3.1,7.6,51,0.00,,,0.02,meteobridge,2013-04-17 14:15:00,
2013-04-17 10:21:00,58.1,40.1,30.12,South,180,3.1,7.6,51,0.00,,,0.02,meteobridge,2013-04-17 14:21:00,
2013-04-17 10:26:00,59.0,41.4,30.12,NW,315,6.0,6.0,52,0.00,,,0.02,meteobridge,2013-04-17 14:26:00,
2013-04-17 10:31:00,59.7,42.1,30.12,North,0,7.6,7.6,52,0.00,,,0.02,meteobridge,2013-04-17 14:31:00,
2013-04-17 10:36:00,61.3,41.5,30.12,South,180,3.8,3.8,48,0.00,,,0.02,meteobridge,2013-04-17 14:36:00,
2013-04-17 10:41:00,62.2,41.2,30.12,SW,225,3.1,6.0,46,0.00,,,0.02,meteobridge,2013-04-17 14:41:00,
2013-04-17 10:46:00,62.8,40.5,30.12,East,90,3.1,6.0,44,0.00,,,0.02,meteobridge,2013-04-17 14:46:00,
2013-04-17 10:52:00,63.7,41.4,30.12,South,180,7.6,7.6,44,0.00,,,0.02,meteobridge,2013-04-17 14:52:00,
2013-04-17 10:57:00,63.7,40.8,30.13,SSW,203,4.5,6.0,43,0.00,,,0.02,meteobridge,2013-04-17 14:57:00,
2013-04-17 11:02:00,63.0,40.1,30.13,SE,135,7.6,7.6,43,0.00,,,0.02,meteobridge,2013-04-17 15:02:00,
2013-04-17 11:07:00,62.2,40.6,30.12,SE,135,5.4,5.4,45,0.00,,,0.02,meteobridge,2013-04-17 15:07:00,
2013-04-17 11:12:00,63.7,41.9,30.13,SE,135,7.6,7.6,45,0.00,,,0.02,meteobridge,2013-04-17 15:12:00,
2013-04-17 11:17:00,64.2,41.2,30.13,South,180,3.8,3.8,43,0.00,,,0.02,meteobridge,2013-04-17 15:17:00,
2013-04-17 11:23:00,64.9,41.4,30.13,South,180,5.4,9.2,42,0.00,,,0.02,meteobridge,2013-04-17 15:23:00,
2013-04-17 11:28:00,64.0,41.2,30.13,SSW,203,3.1,3.1,43,0.00,,,0.02,meteobridge,2013-04-17 15:28:00,
2013-04-17 11:33:00,64.0,40.5,30.13,SE,135,6.9,6.9,42,0.00,,,0.02,meteobridge,2013-04-17 15:33:00,
2013-04-17 11:38:00,64.4,40.1,30.13,South,180,3.1,6.9,41,0.00,,,0.02,meteobridge,2013-04-17 15:38:00,
2013-04-17 11:43:00,64.4,40.1,30.13,SSE,158,8.3,8.3,41,0.00,,,0.02,meteobridge,2013-04-17 15:43:00,
2013-04-17 11:48:00,63.0,38.8,30.13,SW,225,5.4,5.4,41,0.00,,,0.02,meteobridge,2013-04-17 15:48:00,
2013-04-17 11:54:00,63.5,39.4,30.13,SW,225,5.4,8.3,41,0.00,,,0.02,meteobridge,2013-04-17 15:54:00,
2013-04-17 11:59:00,64.2,38.7,30.13,SE,135,6.0,6.0,39,0.00,,,0.02,meteobridge,2013-04-17 15:59:00,
2013-04-17 12:04:00,63.5,37.4,30.13,SE,135,7.6,7.6,38,0.00,,,0.02,meteobridge,2013-04-17 16:04:00,
2013-04-17 12:09:00,62.8,38.1,30.13,South,180,4.5,7.6,40,0.00,,,0.02,meteobridge,2013-04-17 16:09:00,
2013-04-17 12:14:00,63.1,36.5,30.13,South,180,4.5,9.8,37,0.00,,,0.02,meteobridge,2013-04-17 16:14:00,
2013-04-17 12:19:00,63.1,37.8,30.13,SW,225,6.0,6.9,39,0.00,,,0.02,meteobridge,2013-04-17 16:19:00,
2013-04-17 12:25:00,63.7,35.6,30.13,South,180,9.2,10.7,35,0.00,,,0.02,meteobridge,2013-04-17 16:25:00,
2013-04-17 12:30:00,63.5,37.4,30.12,SW,225,4.5,5.4,38,0.00,,,0.02,meteobridge,2013-04-17 16:30:00,
2013-04-17 12:35:00,65.1,38.8,30.13,NW,315,6.0,6.0,38,0.00,,,0.02,meteobridge,2013-04-17 16:35:00,
2013-04-17 12:40:00,63.9,36.3,30.12,NW,315,3.8,5.4,36,0.00,,,0.02,meteobridge,2013-04-17 16:40:00,
2013-04-17 12:45:00,63.7,38.3,30.13,SE,135,2.2,3.8,39,0.00,,,0.02,meteobridge,2013-04-17 16:45:00,
2013-04-17 12:50:00,64.6,39.0,30.13,South,180,5.4,5.4,39,0.00,,,0.02,meteobridge,2013-04-17 16:50:00,
2013-04-17 12:56:00,64.6,37.8,30.13,West,270,3.8,6.0,37,0.00,,,0.02,meteobridge,2013-04-17 16:56:00,
2013-04-17 13:01:00,64.4,38.8,30.12,WSW,248,5.4,5.4,39,0.00,,,0.02,meteobridge,2013-04-17 17:01:00,
2013-04-17 13:06:00,64.4,38.3,30.12,South,180,2.2,5.4,38,0.00,,,0.02,meteobridge,2013-04-17 17:06:00,
2013-04-17 13:11:00,65.7,38.7,30.12,West,270,4.5,4.5,37,0.00,,,0.02,meteobridge,2013-04-17 17:11:00,
2013-04-17 13:16:00,65.8,38.8,30.12,West,270,5.4,5.4,37,0.00,,,0.02,meteobridge,2013-04-17 17:16:00,
2013-04-17 13:21:00,64.9,37.4,30.12,SW,225,5.4,6.9,36,0.00,,,0.02,meteobridge,2013-04-17 17:21:00,
2013-04-17 13:26:00,64.0,35.1,30.13,West,270,4.5,6.9,34,0.00,,,0.02,meteobridge,2013-04-17 17:26:00,
2013-04-17 13:31:00,64.6,37.8,30.13,SW,225,3.8,4.5,37,0.00,,,0.02,meteobridge,2013-04-17 17:31:00,
2013-04-17 13:36:00,64.8,37.2,30.13,South,180,6.0,6.0,36,0.00,,,0.02,meteobridge,2013-04-17 17:36:00,
2013-04-17 13:41:00,64.6,37.0,30.12,SW,225,6.0,9.2,36,0.00,,,0.02,meteobridge,2013-04-17 17:41:00,
2013-04-17 13:46:00,64.9,38.1,30.12,SW,225,3.1,3.1,37,0.00,,,0.02,meteobridge,2013-04-17 17:46:00,
2013-04-17 13:52:00,66.7,37.4,30.12,WSW,248,5.4,5.4,34,0.00,,,0.02,meteobridge,2013-04-17 17:52:00,
2013-04-17 13:57:00,66.6,36.5,30.12,West,270,3.8,6.0,33,0.00,,,0.02,meteobridge,2013-04-17 17:57:00,
2013-04-17 14:02:00,66.4,35.6,30.12,SW,225,3.8,6.9,32,0.00,,,0.02,meteobridge,2013-04-17 18:02:00,
2013-04-17 14:07:00,66.7,37.4,30.12,SW,225,4.5,4.5,34,0.00,,,0.02,meteobridge,2013-04-17 18:07:00,
2013-04-17 14:12:00,66.2,36.3,30.12,SW,225,6.9,6.9,33,0.00,,,0.02,meteobridge,2013-04-17 18:12:00,
2013-04-17 14:17:00,66.0,36.1,30.12,SW,225,6.0,6.0,33,0.00,,,0.02,meteobridge,2013-04-17 18:17:00,
2013-04-17 14:23:00,66.0,34.5,30.12,SW,225,6.0,9.2,31,0.00,,,0.02,meteobridge,2013-04-17 18:23:00,
2013-04-17 14:28:00,65.8,35.2,30.13,South,180,3.8,4.5,32,0.00,,,0.02,meteobridge,2013-04-17 18:28:00,
2013-04-17 14:33:00,66.7,34.3,30.13,East,90,3.8,4.5,30,0.00,,,0.02,meteobridge,2013-04-17 18:33:00,
2013-04-17 14:38:00,66.4,33.1,30.13,West,270,2.2,6.0,29,0.00,,,0.02,meteobridge,2013-04-17 18:38:00,
2013-04-17 14:43:00,66.4,34.0,30.13,SW,225,3.8,5.4,30,0.00,,,0.02,meteobridge,2013-04-17 18:43:00,
2013-04-17 14:48:00,67.6,36.0,30.12,South,180,2.2,4.5,31,0.00,,,0.02,meteobridge,2013-04-17 18:48:00,
2013-04-17 14:54:00,68.2,33.8,30.13,West,270,3.8,5.4,28,0.00,,,0.02,meteobridge,2013-04-17 18:54:00,
2013-04-17 14:59:00,65.7,34.2,30.13,SW,225,6.0,7.6,31,0.00,,,0.02,meteobridge,2013-04-17 18:59:00,
2013-04-17 15:04:00,66.0,36.1,30.12,SSW,203,5.4,5.4,33,0.00,,,0.02,meteobridge,2013-04-17 19:04:00,
2013-04-17 15:09:00,67.5,34.2,30.12,South,180,6.0,6.0,29,0.00,,,0.02,meteobridge,2013-04-17 19:09:00,
2013-04-17 15:14:00,66.4,31.5,30.12,SW,225,7.6,7.6,27,0.00,,,0.02,meteobridge,2013-04-17 19:14:00,
2013-04-17 15:19:00,64.6,34.9,30.12,SW,225,6.0,7.6,33,0.00,,,0.02,meteobridge,2013-04-17 19:19:00,
2013-04-17 15:25:00,64.2,33.8,30.12,South,180,3.8,5.4,32,0.00,,,0.02,meteobridge,2013-04-17 19:25:00,
2013-04-17 15:30:00,65.8,35.2,30.12,East,90,6.0,6.0,32,0.00,,,0.02,meteobridge,2013-04-17 19:30:00,
2013-04-17 15:35:00,67.3,34.0,30.13,NW,315,6.9,6.9,29,0.00,,,0.02,meteobridge,2013-04-17 19:35:00,
2013-04-17 15:40:00,66.0,35.2,30.13,SW,225,4.5,4.5,32,0.00,,,0.02,meteobridge,2013-04-17 19:40:00,
2013-04-17 15:45:00,66.0,33.6,30.13,West,270,3.1,4.5,30,0.00,,,0.02,meteobridge,2013-04-17 19:45:00,
2013-04-17 15:50:00,66.9,33.6,30.13,NW,315,3.1,4.5,29,0.00,,,0.02,meteobridge,2013-04-17 19:50:00,
2013-04-17 15:56:00,67.1,32.9,30.13,NW,315,3.8,4.5,28,0.00,,,0.02,meteobridge,2013-04-17 19:56:00,
2013-04-17 16:01:00,67.6,32.5,30.13,West,270,4.5,6.9,27,0.00,,,0.02,meteobridge,2013-04-17 20:01:00,
2013-04-17 16:06:00,66.4,34.9,30.13,North,0,4.5,6.0,31,0.00,,,0.02,meteobridge,2013-04-17 20:06:00,
2013-04-17 16:11:00,64.0,34.3,30.14,North,0,2.2,3.1,33,0.00,,,0.02,meteobridge,2013-04-17 20:11:00,
2013-04-17 16:16:00,64.4,34.7,30.14,NW,315,1.6,4.5,33,0.00,,,0.02,meteobridge,2013-04-17 20:16:00,
2013-04-17 16:21:00,64.6,34.9,30.14,SW,225,3.1,3.8,33,0.00,,,0.02,meteobridge,2013-04-17 20:21:00,
2013-04-17 16:27:00,63.3,33.8,30.14,West,270,4.5,4.5,33,0.00,,,0.02,meteobridge,2013-04-17 20:27:00,
2013-04-17 16:32:00,62.2,34.2,30.14,SW,225,5.4,6.0,35,0.00,,,0.02,meteobridge,2013-04-17 20:32:00,
2013-04-17 16:37:00,62.2,33.4,30.14,NW,315,2.2,3.8,34,0.00,,,0.02,meteobridge,2013-04-17 20:37:00,
2013-04-17 16:42:00,63.1,33.6,30.14,West,270,4.5,4.5,33,0.00,,,0.02,meteobridge,2013-04-17 20:42:00,
2013-04-17 16:47:00,62.4,33.6,30.14,West,270,6.0,6.0,34,0.00,,,0.02,meteobridge,2013-04-17 20:47:00,
2013-04-17 16:52:00,60.6,33.4,30.15,SW,225,3.1,5.4,36,0.00,,,0.02,meteobridge,2013-04-17 20:52:00,
2013-04-17 16:57:00,59.2,32.9,30.15,South,180,3.8,5.4,37,0.00,,,0.02,meteobridge,2013-04-17 20:57:00,
2013-04-17 17:03:00,59.9,34.2,30.15,West,270,3.8,4.5,38,0.00,,,0.02,meteobridge,2013-04-17 21:03:00,
2013-04-17 17:08:00,59.7,34.0,30.15,West,270,4.5,5.4,38,0.00,,,0.02,meteobridge,2013-04-17 21:08:00,
2013-04-17 17:13:00,59.7,34.0,30.15,West,270,3.1,3.1,38,0.00,,,0.02,meteobridge,2013-04-17 21:13:00,
2013-04-17 17:18:00,60.6,35.6,30.14,West,270,3.1,3.1,39,0.00,,,0.02,meteobridge,2013-04-17 21:18:00,
2013-04-17 17:23:00,60.3,34.5,30.15,West,270,4.5,5.4,38,0.00,,,0.02,meteobridge,2013-04-17 21:23:00,
2013-04-17 17:28:00,57.9,34.3,30.15,North,0,3.8,3.8,41,0.00,,,0.02,meteobridge,2013-04-17 21:28:00,
2013-04-17 17:34:00,56.3,35.2,30.16,NW,315,3.8,3.8,45,0.00,,,0.02,meteobridge,2013-04-17 21:34:00,
2013-04-17 17:39:00,55.4,35.4,30.16,SW,225,2.2,3.1,47,0.00,,,0.02,meteobridge,2013-04-17 21:39:00,
2013-04-17 17:44:00,55.2,35.4,30.17,North,0,0.7,4.5,47,0.00,,,0.02,meteobridge,2013-04-17 21:44:00,
2013-04-17 17:49:00,55.0,34.2,30.16,West,270,2.2,2.2,45,0.00,,,0.02,meteobridge,2013-04-17 21:49:00,
2013-04-17 17:54:00,55.0,34.7,30.17,NE,45,2.2,3.1,46,0.00,,,0.02,meteobridge,2013-04-17 21:54:00,
2013-04-17 17:59:00,54.5,34.7,30.17,North,0,3.8,3.8,47,0.00,,,0.02,meteobridge,2013-04-17 21:59:00,
2013-04-17 18:05:00,54.3,34.0,30.17,West,270,2.2,3.1,46,0.00,,,0.02,meteobridge,2013-04-17 22:05:00,
2013-04-17 18:10:00,54.3,35.6,30.17,NW,315,3.8,3.8,49,0.00,,,0.02,meteobridge,2013-04-17 22:10:00,
2013-04-17 18:15:00,54.1,35.4,30.17,North,0,2.2,3.8,49,0.00,,,0.02,meteobridge,2013-04-17 22:15:00,
2013-04-17 18:20:00,53.8,34.0,30.17,West,270,0.7,1.6,47,0.00,,,0.02,meteobridge,2013-04-17 22:20:00,
2013-04-17 18:25:00,54.3,34.5,30.18,North,0,2.2,2.2,47,0.00,,,0.02,meteobridge,2013-04-17 22:25:00,
2013-04-17 18:30:00,54.7,34.9,30.18,NE,45,1.6,1.6,47,0.00,,,0.02,meteobridge,2013-04-17 22:30:00,
2013-04-17 18:36:00,55.2,35.4,30.19,NE,45,2.2,2.2,47,0.00,,,0.02,meteobridge,2013-04-17 22:36:00,
2013-04-17 18:41:00,54.9,35.6,30.19,NE,45,1.6,1.6,48,0.00,,,0.02,meteobridge,2013-04-17 22:41:00,
2013-04-17 18:46:00,54.3,36.5,30.19,NE,45,0.7,1.6,51,0.00,,,0.02,meteobridge,2013-04-17 22:46:00,
2013-04-17 18:51:00,53.6,36.0,30.19,NE,45,0.0,0.7,51,0.00,,,0.02,meteobridge,2013-04-17 22:51:00,
2013-04-17 18:56:00,53.1,36.0,30.19,North,0,1.6,1.6,52,0.00,,,0.02,meteobridge,2013-04-17 22:56:00,
2013-04-17 19:01:00,52.3,35.2,30.19,East,90,0.7,1.6,52,0.00,,,0.02,meteobridge,2013-04-17 23:01:00,
2013-04-17 19:06:00,52.0,35.4,30.20,North,0,0.7,0.7,53,0.00,,,0.02,meteobridge,2013-04-17 23:06:00,
2013-04-17 19:11:00,51.4,36.3,30.20,East,90,0.7,0.7,56,0.00,,,0.02,meteobridge,2013-04-17 23:11:00,
2013-04-17 19:17:00,50.9,35.8,30.20,East,90,0.7,0.7,56,0.00,,,0.02,meteobridge,2013-04-17 23:17:00,
2013-04-17 19:22:00,50.5,36.0,30.21,East,90,0.0,0.0,57,0.00,,,0.02,meteobridge,2013-04-17 23:22:00,
2013-04-17 19:27:00,50.2,36.3,30.21,NE,45,0.0,0.7,59,0.00,,,0.02,meteobridge,2013-04-17 23:27:00,
2013-04-17 19:32:00,49.8,37.4,30.21,NE,45,0.7,1.6,62,0.00,,,0.02,meteobridge,2013-04-17 23:32:00,
2013-04-17 19:37:00,49.5,37.4,30.21,NW,315,1.6,1.6,63,0.00,,,0.02,meteobridge,2013-04-17 23:37:00,
2013-04-17 19:42:00,48.9,36.9,30.21,SE,135,0.7,1.6,63,0.00,,,0.02,meteobridge,2013-04-17 23:42:00,
2013-04-17 19:48:00,48.7,37.0,30.22,SE,135,0.0,0.0,64,0.00,,,0.02,meteobridge,2013-04-17 23:48:00,
2013-04-17 19:53:00,48.4,37.2,30.22,North,0,0.7,0.7,65,0.00,,,0.02,meteobridge,2013-04-17 23:53:00,
2013-04-17 19:58:00,48.0,37.2,30.22,SW,225,0.7,1.6,66,0.00,,,0.02,meteobridge,2013-04-17 23:58:00,
2013-04-17 20:03:00,47.5,37.0,30.22,North,0,0.0,0.7,67,0.00,,,0.02,meteobridge,2013-04-18 00:03:00,
2013-04-17 20:08:00,47.1,37.0,30.23,NE,45,3.1,3.1,68,0.00,,,0.02,meteobridge,2013-04-18 00:08:00,
2013-04-17 20:13:00,46.9,37.2,30.23,East,90,0.0,0.7,69,0.00,,,0.02,meteobridge,2013-04-18 00:13:00,
2013-04-17 20:19:00,46.6,37.0,30.23,East,90,0.0,0.0,69,0.00,,,0.02,meteobridge,2013-04-18 00:19:00,
2013-04-17 20:24:00,46.2,36.7,30.24,East,90,0.7,0.7,69,0.00,,,0.02,meteobridge,2013-04-18 00:24:00,
2013-04-17 20:29:00,46.0,37.2,30.24,East,90,0.0,0.0,71,0.00,,,0.02,meteobridge,2013-04-18 00:29:00,
2013-04-17 20:34:00,45.7,36.9,30.24,East,90,0.0,0.0,71,0.00,,,0.02,meteobridge,2013-04-18 00:34:00,
2013-04-17 20:39:00,45.3,36.5,30.25,South,180,0.0,0.7,71,0.00,,,0.02,meteobridge,2013-04-18 00:39:00,
2013-04-17 20:44:00,45.0,36.5,30.25,North,0,0.0,0.0,72,0.00,,,0.02,meteobridge,2013-04-18 00:44:00,
2013-04-17 20:50:00,45.0,36.5,30.26,North,0,0.0,0.0,72,0.00,,,0.02,meteobridge,2013-04-18 00:50:00,
2013-04-17 20:55:00,44.6,36.1,30.26,North,0,0.0,0.0,72,0.00,,,0.02,meteobridge,2013-04-18 00:55:00,
2013-04-17 21:00:00,44.2,36.1,30.26,North,0,0.0,0.0,73,0.00,,,0.02,meteobridge,2013-04-18 01:00:00,
2013-04-17 21:05:00,43.9,35.8,30.26,North,0,0.0,0.0,73,0.00,,,0.02,meteobridge,2013-04-18 01:05:00,
2013-04-17 21:10:00,43.9,36.5,30.27,North,0,0.0,1.6,75,0.00,,,0.02,meteobridge,2013-04-18 01:10:00,
2013-04-17 21:15:00,43.5,36.1,30.27,East,90,0.0,0.7,75,0.00,,,0.02,meteobridge,2013-04-18 01:15:00,
2013-04-17 21:21:00,43.5,36.5,30.27,East,90,0.0,0.0,76,0.00,,,0.02,meteobridge,2013-04-18 01:21:00,
2013-04-17 21:26:00,43.2,36.1,30.27,SE,135,0.0,0.0,76,0.00,,,0.02,meteobridge,2013-04-18 01:26:00,
2013-04-17 21:31:00,43.2,36.1,30.26,SE,135,0.0,0.0,76,0.00,,,0.02,meteobridge,2013-04-18 01:31:00,
2013-04-17 21:36:00,42.8,36.1,30.27,SE,135,0.0,0.0,77,0.00,,,0.02,meteobridge,2013-04-18 01:36:00,
2013-04-17 21:41:00,42.8,36.1,30.27,East,90,0.0,0.0,77,0.00,,,0.02,meteobridge,2013-04-18 01:41:00,
2013-04-17 21:46:00,42.8,36.5,30.27,North,0,0.0,0.0,78,0.00,,,0.02,meteobridge,2013-04-18 01:46:00,
2013-04-17 21:52:00,42.8,36.5,30.27,North,0,0.0,0.0,78,0.00,,,0.02,meteobridge,2013-04-18 01:52:00,
2013-04-17 21:57:00,42.4,37.0,30.27,East,90,0.0,0.0,81,0.00,,,0.02,meteobridge,2013-04-18 01:57:00,
2013-04-17 22:02:00,42.4,37.0,30.27,East,90,0.0,0.0,81,0.00,,,0.02,meteobridge,2013-04-18 02:02:00,
2013-04-17 22:07:00,42.4,37.0,30.27,East,90,0.0,0.0,81,0.00,,,0.02,meteobridge,2013-04-18 02:07:00,
2013-04-17 22:12:00,41.7,36.3,30.27,East,90,0.0,0.0,81,0.00,,,0.02,meteobridge,2013-04-18 02:12:00,
2013-04-17 22:17:00,41.5,36.5,30.27,East,90,0.0,0.0,82,0.00,,,0.02,meteobridge,2013-04-18 02:17:00,
2013-04-17 22:23:00,41.2,36.5,30.27,East,90,0.0,0.0,83,0.00,,,0.02,meteobridge,2013-04-18 02:23:00,
2013-04-17 22:28:00,41.0,36.0,30.27,East,90,0.0,0.0,82,0.00,,,0.02,meteobridge,2013-04-18 02:28:00,
2013-04-17 22:33:00,41.0,36.3,30.27,NE,45,0.0,0.0,83,0.00,,,0.02,meteobridge,2013-04-18 02:33:00,
2013-04-17 22:38:00,41.2,36.5,30.27,NE,45,0.0,0.0,83,0.00,,,0.02,meteobridge,2013-04-18 02:38:00,
2013-04-17 22:43:00,41.2,36.7,30.27,East,90,0.0,0.0,84,0.00,,,0.02,meteobridge,2013-04-18 02:43:00,
2013-04-17 22:48:00,41.2,36.7,30.27,North,0,0.0,0.0,84,0.00,,,0.02,meteobridge,2013-04-18 02:48:00,
2013-04-17 22:53:00,41.2,37.0,30.27,East,90,0.0,0.0,85,0.00,,,0.02,meteobridge,2013-04-18 02:53:00,
2013-04-17 22:59:00,41.2,37.0,30.27,SW,225,0.0,0.0,85,0.00,,,0.02,meteobridge,2013-04-18 02:59:00,
2013-04-17 23:04:00,40.8,37.0,30.28,East,90,0.0,0.0,86,0.00,,,0.02,meteobridge,2013-04-18 03:04:00,
2013-04-17 23:09:00,40.6,37.0,30.27,SE,135,0.0,0.0,87,0.00,,,0.02,meteobridge,2013-04-18 03:09:00,
2013-04-17 23:14:00,40.5,36.9,30.27,SW,225,0.0,0.0,87,0.00,,,0.02,meteobridge,2013-04-18 03:14:00,
2013-04-17 23:19:00,40.3,36.7,30.27,North,0,0.0,0.0,87,0.00,,,0.02,meteobridge,2013-04-18 03:19:00,
2013-04-17 23:24:00,40.6,37.4,30.27,SE,135,1.6,1.6,88,0.00,,,0.02,meteobridge,2013-04-18 03:24:00,
2013-04-17 23:30:00,41.0,37.8,30.27,West,270,1.6,1.6,88,0.00,,,0.02,meteobridge,2013-04-18 03:30:00,
2013-04-17 23:35:00,40.6,37.6,30.27,West,270,0.0,0.0,89,0.00,,,0.02,meteobridge,2013-04-18 03:35:00,
2013-04-17 23:40:00,40.3,37.0,30.28,SE,135,0.0,0.0,88,0.00,,,0.02,meteobridge,2013-04-18 03:40:00,
2013-04-17 23:45:00,40.3,37.0,30.28,South,180,0.0,0.0,88,0.00,,,0.02,meteobridge,2013-04-18 03:45:00,
2013-04-17 23:50:00,40.1,36.9,30.28,South,180,0.0,0.0,88,0.00,,,0.02,meteobridge,2013-04-18 03:50:00,
2013-04-17 23:55:00,39.7,36.5,30.28,South,180,0.0,0.0,88,0.00,,,0.02,meteobridge,2013-04-18 03:55:00,